MET'MAP v2.0
soon released !

Expected late october,
this new version will be
more efficient, smarter,
and hosted on a brand new
server x3 powerfull...
...and still free !


Not compatible ?
Try the mobile version !

LOG IN : | Subscribe | Disclaimer | Who is Orbifly ? |
ICAO code :

TAF - EGTC Cranfield - 22 Nov 2019 08:54 UTC
Data Sources :     NOAA   


- Airport Elevation : 358 ft
- No reported NOTAMs.


EGTC - Cranfield

Latest METAR recorded : 2015/08/11 07:50 EGTC 110750Z 30002KT 9999 CAVOK 14/11 Q1019
Expired Forecast.

Source NOAA


MET'MAP, your aeronautical weather chart ! - Copyright ORBIFLY December 2007

Programming & Development : Alexandra Zaïnal
Co-Developer : Marc-Olivier Méhu
Technical & hardware support : Manuel Goepfert
Concept & Financing : Baudouin d'Aumeries